Time;durP1;ratioP1;P1;durP2;ratioP2;P2;SDS_P1;SDS_P2;PMS_P1;PMS_P2;Temp;Humidity;BMP_temperature;BMP_pressure;BME280_temperature;BME280_humidity;BME280_pressure;Samples;Min_cycle;Max_cycle;Signal;HPM_P1;HPM_P2
2022/05/14 00:02:10;;;;;;;8.25;2.45;;;11.80;99.90;;;;;;5041324;28;20098;-67
2022/05/14 00:04:36;;;;;;;5.57;2.25;;;11.80;99.90;;;;;;5016693;28;20103;-67
2022/05/14 00:07:02;;;;;;;7.50;2.45;;;11.80;99.90;;;;;;5022771;28;20092;-66
2022/05/14 00:09:28;;;;;;;9.30;2.65;;;11.80;99.90;;;;;;5050170;28;20055;-66
2022/05/14 00:14:58;;;;;;;9.30;2.83;;;11.80;99.90;;;;;;4966856;28;20449;-66
2022/05/14 00:17:23;;;;;;;9.73;2.65;;;11.80;99.90;;;;;;4983356;28;20121;-66
2022/05/14 00:19:49;;;;;;;7.05;2.25;;;11.70;99.90;;;;;;4987712;28;20054;-66
2022/05/14 00:22:15;;;;;;;10.93;2.50;;;11.70;99.90;;;;;;4981380;28;20035;-66
2022/05/14 00:24:41;;;;;;;8.45;2.70;;;11.80;99.90;;;;;;4971517;28;20640;-66
2022/05/14 00:27:06;;;;;;;5.95;1.83;;;11.70;99.90;;;;;;4978552;28;20070;-66
2022/05/14 00:29:32;;;;;;;8.30;2.30;;;11.80;99.90;;;;;;4984914;28;20133;-66
2022/05/14 00:31:58;;;;;;;7.30;2.53;;;11.80;99.90;;;;;;4969752;28;20077;-66
2022/05/14 00:34:23;;;;;;;7.13;2.30;;;11.80;99.90;;;;;;4966030;28;20058;-66
2022/05/14 00:36:49;;;;;;;7.88;2.30;;;11.80;99.90;;;;;;4969266;28;20057;-67
2022/05/14 00:39:15;;;;;;;9.35;2.38;;;11.80;99.90;;;;;;4980795;28;20403;-66
2022/05/14 00:41:47;;;;;;;8.90;2.38;;;11.80;99.90;;;;;;4970503;28;20050;-66
2022/05/14 00:44:13;;;;;;;9.90;2.30;;;11.80;99.90;;;;;;4985188;28;20112;-66
2022/05/14 00:47:15;;;;;;;7.85;2.30;;;11.70;99.90;;;;;;5032185;28;20135;-65
2022/05/14 00:49:41;;;;;;;9.00;2.15;;;11.60;99.90;;;;;;4975300;28;20062;-66
2022/05/14 00:52:15;;;;;;;10.18;2.53;;;11.60;99.90;;;;;;4991680;28;20525;-66
2022/05/14 00:54:52;;;;;;;8.27;2.47;;;11.60;99.90;;;;;;4992261;28;20633;-66
2022/05/14 00:57:22;;;;;;;9.70;2.60;;;11.60;99.90;;;;;;4987097;28;20117;-66
2022/05/14 00:59:48;;;;;;;8.60;2.42;;;11.50;99.90;;;;;;4992490;28;20053;-66
2022/05/14 01:02:13;;;;;;;6.22;2.13;;;11.50;99.90;;;;;;4971900;28;20086;-66
2022/05/14 01:04:42;;;;;;;7.30;2.25;;;11.40;99.90;;;;;;4997413;28;20085;-66
2022/05/14 01:07:13;;;;;;;8.27;2.42;;;11.30;99.90;;;;;;4989315;28;20058;-66
2022/05/14 01:09:41;;;;;;;7.70;2.30;;;11.40;99.90;;;;;;4983098;28;20057;-66
2022/05/14 01:12:08;;;;;;;7.85;2.78;;;11.40;99.90;;;;;;4980080;28;20050;-67
2022/05/14 01:14:34;;;;;;;6.18;2.28;;;11.40;99.90;;;;;;4972248;28;20054;-66
2022/05/14 01:17:00;;;;;;;9.02;2.42;;;11.40;99.90;;;;;;4974129;28;20046;-67
2022/05/14 01:19:26;;;;;;;10.50;2.50;;;11.40;99.90;;;;;;4975110;28;20047;-67
2022/05/14 01:22:28;;;;;;;7.43;2.58;;;11.30;99.90;;;;;;4987538;28;20038;-66
2022/05/14 01:28:02;;;;;;;8.10;2.95;;;11.30;99.90;;;;;;5058978;28;20039;-66
2022/05/14 01:30:29;;;;;;;8.63;2.55;;;11.30;99.90;;;;;;5074578;28;20392;-66
2022/05/14 01:33:04;;;;;;;9.88;2.92;;;11.30;99.90;;;;;;5055655;28;20036;-67
2022/05/14 01:35:40;;;;;;;9.38;2.70;;;11.20;99.90;;;;;;5074090;28;20390;-66
2022/05/14 01:38:05;;;;;;;12.95;3.85;;;11.20;99.90;;;;;;5070702;28;20433;-66
2022/05/14 01:40:32;;;;;;;12.82;2.80;;;11.10;99.90;;;;;;5056286;28;20055;-66
2022/05/14 01:42:58;;;;;;;7.55;2.55;;;11.10;99.90;;;;;;5083426;28;20093;-66
2022/05/14 01:45:25;;;;;;;8.25;2.42;;;11.10;99.90;;;;;;5072200;28;20429;-66
2022/05/14 01:47:51;;;;;;;8.73;2.47;;;11.10;99.90;;;;;;5088862;28;20040;-66
2022/05/14 01:50:17;;;;;;;9.50;2.80;;;11.00;99.90;;;;;;5062230;28;20142;-66
2022/05/14 01:52:43;;;;;;;12.27;3.03;;;11.00;99.90;;;;;;5067288;28;20132;-66
2022/05/14 01:55:08;;;;;;;8.02;2.45;;;11.00;99.90;;;;;;5057016;28;20029;-66
2022/05/14 01:57:34;;;;;;;5.00;2.45;;;11.00;99.90;;;;;;5038984;28;20040;-66
2022/05/14 02:00:02;;;;;;;8.77;2.70;;;11.00;99.90;;;;;;5057101;28;20120;-66
2022/05/14 02:02:27;;;;;;;5.05;2.45;;;11.00;99.90;;;;;;5055969;28;20071;-66
2022/05/14 02:04:53;;;;;;;8.38;3.50;;;11.00;99.90;;;;;;5084738;28;20083;-66
2022/05/14 02:07:19;;;;;;;10.15;2.53;;;11.00;99.90;;;;;;5072685;28;20119;-67
2022/05/14 02:09:44;;;;;;;11.73;3.15;;;11.00;99.90;;;;;;5063926;28;20495;-66
2022/05/14 02:12:10;;;;;;;9.73;3.15;;;11.00;99.90;;;;;;5091287;28;20044;-66
2022/05/14 02:14:36;;;;;;;11.48;2.85;;;11.00;99.90;;;;;;5047060;28;20056;-67
2022/05/14 02:17:02;;;;;;;11.05;2.58;;;11.00;99.90;;;;;;5036329;28;20499;-66
2022/05/14 02:19:28;;;;;;;9.38;2.97;;;10.90;99.90;;;;;;5040068;28;20102;-66
2022/05/14 02:21:53;;;;;;;11.73;3.78;;;10.90;99.90;;;;;;5071053;28;20044;-65
2022/05/14 02:24:19;;;;;;;11.10;3.20;;;10.80;99.90;;;;;;5045492;28;20041;-65
2022/05/14 02:26:45;;;;;;;8.13;3.20;;;10.80;99.90;;;;;;5035053;28;20435;-66
2022/05/14 02:29:10;;;;;;;9.43;3.53;;;10.80;99.90;;;;;;5046555;28;20127;-66
2022/05/14 02:31:36;;;;;;;12.43;3.20;;;10.80;99.90;;;;;;5051941;28;20052;-66
2022/05/14 02:34:02;;;;;;;11.57;3.67;;;10.80;99.90;;;;;;5042676;28;20060;-65
2022/05/14 02:36:27;;;;;;;11.48;3.70;;;10.80;99.90;;;;;;5036720;28;20045;-66
2022/05/14 02:38:53;;;;;;;13.68;4.30;;;10.90;99.90;;;;;;5042384;28;20095;-66
2022/05/14 02:41:18;;;;;;;10.73;3.92;;;10.90;99.90;;;;;;5034341;28;20548;-66
2022/05/14 02:43:44;;;;;;;13.15;3.97;;;10.90;99.90;;;;;;5034782;28;20093;-66
2022/05/14 02:46:12;;;;;;;12.00;4.50;;;11.00;99.90;;;;;;5057082;28;20506;-66
2022/05/14 02:48:38;;;;;;;14.30;4.22;;;11.00;99.90;;;;;;5065672;28;20029;-66
2022/05/14 02:51:05;;;;;;;14.05;3.50;;;11.00;99.90;;;;;;5040093;28;20048;-66
2022/05/14 02:53:30;;;;;;;11.50;4.03;;;11.00;99.90;;;;;;5055706;28;20491;-66
2022/05/14 02:55:56;;;;;;;10.73;3.80;;;11.00;99.90;;;;;;5041598;28;20129;-66
2022/05/14 03:01:07;;;;;;;14.95;4.93;;;11.00;99.90;;;;;;5035543;28;20048;-65
2022/05/14 03:03:33;;;;;;;12.60;3.90;;;11.00;99.90;;;;;;5043595;28;20040;-66
2022/05/14 03:05:59;;;;;;;9.63;3.60;;;11.00;99.90;;;;;;5045993;28;20043;-66
2022/05/14 03:08:25;;;;;;;10.45;3.63;;;11.00;99.90;;;;;;5050341;28;20453;-67
2022/05/14 03:10:50;;;;;;;15.93;4.03;;;11.00;99.90;;;;;;5044174;28;20048;-66
2022/05/14 03:13:17;;;;;;;12.05;4.18;;;11.00;99.90;;;;;;5064063;28;20046;-66
2022/05/14 03:15:42;;;;;;;15.38;4.10;;;11.00;99.90;;;;;;5050542;28;20079;-66
2022/05/14 03:18:08;;;;;;;11.75;4.18;;;10.90;99.90;;;;;;5047875;28;20555;-66
2022/05/14 03:20:34;;;;;;;11.77;4.47;;;10.90;99.90;;;;;;5052421;28;20048;-66
2022/05/14 03:22:59;;;;;;;9.25;3.95;;;10.90;99.90;;;;;;5030888;28;20044;-66
2022/05/14 03:25:25;;;;;;;11.80;3.75;;;10.90;99.90;;;;;;5033085;28;20033;-66
2022/05/14 03:27:51;;;;;;;9.85;3.83;;;10.90;99.90;;;;;;5046306;28;20475;-67
2022/05/14 03:30:18;;;;;;;11.95;4.35;;;10.90;99.90;;;;;;5033470;28;20395;-66
2022/05/14 03:32:43;;;;;;;10.18;4.15;;;10.80;99.90;;;;;;5034285;28;20048;-66
2022/05/14 03:35:09;;;;;;;12.88;4.28;;;10.80;99.90;;;;;;5037384;28;20041;-66
2022/05/14 03:37:36;;;;;;;8.25;3.35;;;10.80;99.90;;;;;;5040240;28;20064;-66
2022/05/14 03:40:03;;;;;;;11.57;4.03;;;10.70;99.90;;;;;;5019624;28;20116;-66
2022/05/14 03:42:30;;;;;;;11.32;4.20;;;10.70;99.90;;;;;;5035358;28;20415;-66
2022/05/14 03:44:56;;;;;;;11.43;4.53;;;10.70;99.90;;;;;;5047650;28;20057;-66
2022/05/14 03:47:22;;;;;;;14.23;4.35;;;10.70;99.90;;;;;;5050175;28;20054;-67
2022/05/14 03:49:47;;;;;;;15.07;4.32;;;10.70;99.90;;;;;;5044809;28;20136;-67
2022/05/14 03:52:13;;;;;;;12.75;4.40;;;10.60;99.90;;;;;;5031990;28;20044;-66
2022/05/14 03:54:39;;;;;;;9.05;3.45;;;10.60;99.90;;;;;;5014713;28;20132;-66
2022/05/14 03:57:08;;;;;;;9.43;3.58;;;10.60;99.90;;;;;;5042609;28;20116;-67
2022/05/14 03:59:34;;;;;;;10.27;3.70;;;10.60;99.90;;;;;;5048454;28;20446;-66
2022/05/14 04:02:02;;;;;;;12.00;4.90;;;10.50;99.90;;;;;;5044151;28;20048;-67
2022/05/14 04:04:28;;;;;;;12.40;4.07;;;10.50;99.90;;;;;;5065558;28;20107;-66
2022/05/14 04:06:53;;;;;;;16.13;4.05;;;10.50;99.90;;;;;;5049315;28;20076;-66
2022/05/14 04:09:20;;;;;;;12.48;4.68;;;10.50;99.90;;;;;;5031722;28;20033;-66
2022/05/14 04:11:46;;;;;;;10.27;4.30;;;10.50;99.90;;;;;;5020957;28;20040;-66
2022/05/14 04:14:12;;;;;;;13.05;5.25;;;10.50;99.90;;;;;;5056794;28;20075;-66
2022/05/14 04:16:38;;;;;;;16.52;5.07;;;10.50;99.90;;;;;;5078365;28;20041;-66
2022/05/14 04:19:04;;;;;;;11.32;4.95;;;10.50;99.90;;;;;;5059647;28;20033;-66
2022/05/14 04:21:30;;;;;;;15.82;5.03;;;10.50;99.90;;;;;;5072368;28;20074;-66
2022/05/14 04:23:55;;;;;;;13.85;4.90;;;10.40;99.90;;;;;;5050426;28;20080;-66
2022/05/14 04:26:23;;;;;;;18.75;5.07;;;10.50;99.90;;;;;;5055402;28;20049;-66
2022/05/14 04:28:49;;;;;;;15.75;4.75;;;10.50;99.90;;;;;;5043535;28;20083;-66
2022/05/14 04:31:15;;;;;;;15.10;5.45;;;10.60;99.90;;;;;;5091707;28;20495;-66
2022/05/14 04:33:40;;;;;;;16.67;4.40;;;10.60;99.90;;;;;;5059656;28;20123;-66
2022/05/14 04:36:06;;;;;;;12.27;4.95;;;10.60;99.90;;;;;;5054742;28;20044;-66
2022/05/14 04:38:32;;;;;;;16.35;5.90;;;10.60;99.90;;;;;;5071866;28;20044;-66
2022/05/14 04:40:58;;;;;;;13.38;4.82;;;10.70;99.90;;;;;;5058675;28;20475;-66
2022/05/14 04:43:24;;;;;;;18.02;5.38;;;10.70;99.90;;;;;;5068360;28;20617;-66
2022/05/14 04:45:50;;;;;;;12.40;4.75;;;10.80;99.90;;;;;;5074503;28;20097;-66
2022/05/14 04:48:16;;;;;;;15.38;4.95;;;10.80;99.90;;;;;;5059024;28;20040;-67
2022/05/14 04:50:42;;;;;;;12.32;5.13;;;10.90;99.90;;;;;;5048113;28;20056;-66
2022/05/14 04:53:08;;;;;;;14.45;5.15;;;10.90;99.90;;;;;;5055591;28;20372;-66
2022/05/14 04:55:34;;;;;;;12.85;5.13;;;11.00;99.90;;;;;;5055381;28;20045;-66
2022/05/14 04:58:00;;;;;;;14.25;6.50;;;11.10;99.90;;;;;;5057894;28;20156;-66
2022/05/14 05:00:26;;;;;;;13.88;5.60;;;11.10;99.90;;;;;;5059906;28;20112;-66
2022/05/14 05:05:36;;;;;;;16.23;5.32;;;11.20;99.90;;;;;;5067856;28;20044;-66
2022/05/14 05:08:02;;;;;;;12.82;5.40;;;11.20;99.90;;;;;;5070944;28;20383;-66
2022/05/14 05:10:28;;;;;;;16.10;6.30;;;11.20;99.90;;;;;;5076700;28;20032;-66
2022/05/14 05:12:54;;;;;;;15.10;5.45;;;11.30;99.90;;;;;;5067119;28;20047;-65
2022/05/14 05:15:20;;;;;;;16.00;5.88;;;11.30;99.90;;;;;;5058685;28;20048;-66
2022/05/14 05:17:46;;;;;;;13.02;5.05;;;11.40;99.90;;;;;;5038927;28;20434;-66
2022/05/14 05:20:12;;;;;;;21.50;6.57;;;11.40;99.90;;;;;;5034217;28;20455;-65
2022/05/14 05:22:38;;;;;;;15.98;6.03;;;11.50;99.90;;;;;;5034306;28;20127;-66
2022/05/14 05:25:08;;;;;;;18.63;6.30;;;11.60;99.90;;;;;;5053727;28;20070;-66
2022/05/14 05:27:35;;;;;;;14.82;6.20;;;11.70;99.90;;;;;;5036125;28;20102;-66
2022/05/14 05:30:02;;;;;;;15.48;6.63;;;11.70;99.90;;;;;;5071607;28;20447;-66
2022/05/14 05:32:28;;;;;;;17.33;6.20;;;11.80;99.90;;;;;;5048072;28;20053;-66
2022/05/14 05:34:54;;;;;;;17.50;6.15;;;11.90;99.90;;;;;;5034059;28;20392;-65
2022/05/14 05:37:19;;;;;;;17.23;7.38;;;12.00;99.90;;;;;;5048068;28;20071;-65
2022/05/14 05:39:45;;;;;;;18.42;7.25;;;12.00;99.90;;;;;;5045695;28;20430;-66
2022/05/14 05:42:10;;;;;;;18.33;6.50;;;12.10;99.90;;;;;;5042869;28;20071;-65
2022/05/14 05:44:36;;;;;;;19.92;6.60;;;12.20;99.90;;;;;;5045433;28;20426;-65
2022/05/14 05:47:09;;;;;;;15.20;6.53;;;12.30;99.90;;;;;;5043237;28;20101;-64
2022/05/14 05:49:37;;;;;;;18.00;6.40;;;12.40;99.90;;;;;;5039386;28;20055;-65
2022/05/14 05:52:04;;;;;;;18.83;6.45;;;12.50;99.90;;;;;;5041148;28;20530;-65
2022/05/14 05:57:14;;;;;;;17.73;6.28;;;12.70;99.90;;;;;;5034186;28;20507;-64
2022/05/14 05:59:39;;;;;;;17.55;6.50;;;12.80;99.90;;;;;;5038585;28;20055;-64
2022/05/14 06:02:06;;;;;;;19.13;5.82;;;12.90;99.90;;;;;;5038524;28;20483;-65
2022/05/14 06:04:32;;;;;;;14.00;5.43;;;13.00;99.90;;;;;;5053488;28;20059;-65
2022/05/14 06:06:57;;;;;;;17.58;6.70;;;13.00;99.90;;;;;;5044109;28;20423;-64
2022/05/14 06:09:26;;;;;;;19.15;6.28;;;13.10;99.90;;;;;;5051105;28;20044;-64
2022/05/14 06:11:52;;;;;;;17.10;6.15;;;13.00;99.90;;;;;;5034588;28;20067;-65
2022/05/14 06:14:18;;;;;;;16.48;6.30;;;13.00;99.90;;;;;;5052087;28;20056;-64
2022/05/14 06:16:45;;;;;;;18.40;6.13;;;13.00;99.90;;;;;;5058809;28;20048;-65
2022/05/14 06:19:11;;;;;;;17.60;5.68;;;12.90;99.90;;;;;;5041758;28;20498;-64
2022/05/14 06:21:38;;;;;;;16.80;6.47;;;13.00;99.90;;;;;;5058190;28;20033;-64
2022/05/14 06:24:05;;;;;;;20.50;6.10;;;12.90;99.90;;;;;;5016707;28;20535;-64
2022/05/14 06:26:30;;;;;;;17.80;6.05;;;12.90;99.90;;;;;;5028648;28;20044;-64
2022/05/14 06:28:56;;;;;;;15.65;6.00;;;13.00;99.90;;;;;;5047012;28;20471;-65
2022/05/14 06:31:22;;;;;;;20.02;6.85;;;13.20;99.90;;;;;;5067548;28;20040;-64
2022/05/14 06:33:48;;;;;;;18.73;6.43;;;13.30;99.90;;;;;;5047328;28;20044;-64
2022/05/14 06:36:14;;;;;;;19.25;6.78;;;13.40;99.90;;;;;;5051557;28;20046;-65
2022/05/14 06:38:40;;;;;;;17.45;6.45;;;13.50;99.90;;;;;;5046551;28;20052;-64
2022/05/14 06:41:08;;;;;;;19.15;6.72;;;13.60;99.90;;;;;;5047208;28;20368;-64
2022/05/14 06:43:34;;;;;;;19.35;6.63;;;13.80;99.90;;;;;;5052427;28;20040;-64
2022/05/14 06:45:59;;;;;;;19.77;5.93;;;13.90;99.90;;;;;;5063030;28;20090;-64
2022/05/14 06:48:25;;;;;;;16.05;6.50;;;14.10;99.90;;;;;;5050661;28;20036;-64
2022/05/14 06:50:51;;;;;;;18.30;6.20;;;14.20;99.90;;;;;;5040971;28;20547;-64
2022/05/14 06:53:19;;;;;;;22.10;7.10;;;14.30;99.90;;;;;;5052095;28;20136;-64
2022/05/14 06:55:47;;;;;;;19.88;6.82;;;14.40;99.90;;;;;;5051377;28;20063;-64
2022/05/14 06:58:17;;;;;;;22.42;7.65;;;14.60;99.90;;;;;;5052889;28;20052;-65
2022/05/14 07:00:44;;;;;;;24.10;7.20;;;14.60;99.90;;;;;;5044238;28;20083;-65
2022/05/14 07:08:38;;;;;;;20.30;7.07;;;15.00;99.90;;;;;;5052308;28;20127;-65
2022/05/14 07:11:04;;;;;;;22.77;7.28;;;15.10;99.90;;;;;;5067583;28;20124;-64
2022/05/14 07:13:30;;;;;;;25.30;7.43;;;15.20;99.90;;;;;;5046695;28;20427;-65
2022/05/14 07:15:55;;;;;;;20.15;6.22;;;15.40;99.90;;;;;;5051973;28;20553;-65
2022/05/14 07:18:21;;;;;;;20.05;6.45;;;15.60;99.90;;;;;;5069601;28;20037;-65
2022/05/14 07:20:47;;;;;;;21.75;6.90;;;15.60;99.90;;;;;;5070345;28;20036;-65
2022/05/14 07:23:13;;;;;;;22.88;6.22;;;15.80;99.90;;;;;;5050900;28;20448;-65
2022/05/14 07:25:39;;;;;;;22.15;6.85;;;15.90;99.90;;;;;;5052324;28;20116;-65
2022/05/14 07:28:05;;;;;;;22.48;6.45;;;16.10;99.90;;;;;;5062020;28;20029;-65
2022/05/14 07:30:32;;;;;;;19.65;5.75;;;16.30;99.90;;;;;;5045891;28;20056;-65
2022/05/14 07:32:57;;;;;;;21.33;6.75;;;16.40;99.90;;;;;;5028859;28;20157;-65
2022/05/14 07:35:23;;;;;;;23.02;6.07;;;16.50;99.90;;;;;;5051861;28;20265;-64
2022/05/14 07:37:53;;;;;;;20.00;6.10;;;16.60;99.90;;;;;;5051024;28;20389;-65
2022/05/14 07:40:24;;;;;;;20.30;5.45;;;16.50;99.90;;;;;;5039836;28;20029;-65
2022/05/14 07:42:55;;;;;;;15.35;5.10;;;16.50;99.90;;;;;;5050666;28;20032;-65
2022/05/14 07:45:27;;;;;;;19.90;5.38;;;16.40;99.90;;;;;;5031546;28;20037;-65
2022/05/14 07:47:55;;;;;;;19.77;5.38;;;16.40;99.90;;;;;;5051219;28;20033;-66
2022/05/14 07:50:21;;;;;;;22.48;5.30;;;16.40;99.90;;;;;;5066019;28;20407;-64
2022/05/14 07:52:47;;;;;;;26.85;5.85;;;16.60;99.90;;;;;;5055838;28;20043;-66
2022/05/14 07:55:13;;;;;;;17.42;5.50;;;16.80;99.90;;;;;;5069875;28;20039;-65
2022/05/14 07:57:38;;;;;;;21.60;6.03;;;16.80;99.90;;;;;;5038534;28;20049;-65
2022/05/14 08:00:05;;;;;;;21.38;5.45;;;16.80;99.90;;;;;;5042231;28;20746;-65
2022/05/14 08:02:34;;;;;;;21.50;5.28;;;17.00;99.90;;;;;;5056589;28;20032;-65
2022/05/14 08:05:09;;;;;;;21.63;4.97;;;17.10;99.90;;;;;;5040930;28;20071;-65
2022/05/14 08:07:35;;;;;;;27.48;6.13;;;17.40;99.90;;;;;;5037899;28;20045;-65
2022/05/14 08:10:03;;;;;;;19.75;5.38;;;17.50;99.90;;;;;;5061437;28;20036;-65
2022/05/14 08:12:39;;;;;;;20.83;5.03;;;17.60;99.90;;;;;;5035556;28;20090;-65
2022/05/14 08:15:07;;;;;;;17.15;4.97;;;18.00;99.90;;;;;;5054713;28;20515;-65
2022/05/14 08:17:33;;;;;;;16.25;4.57;;;18.20;99.90;;;;;;5055464;28;20064;-65
2022/05/14 08:19:59;;;;;;;17.77;4.97;;;18.20;99.90;;;;;;5056767;28;20052;-65
2022/05/14 08:25:09;;;;;;;19.58;4.53;;;18.00;99.90;;;;;;5073322;28;20032;-66
2022/05/14 08:27:44;;;;;;;18.42;4.40;;;17.80;99.90;;;;;;5067610;28;20489;-65
2022/05/14 08:30:32;;;;;;;14.05;4.15;;;17.60;99.90;;;;;;5089685;28;20118;-65
2022/05/14 08:32:58;;;;;;;19.08;4.47;;;17.70;99.90;;;;;;5073537;28;20040;-65
2022/05/14 08:35:25;;;;;;;20.73;4.68;;;17.90;99.90;;;;;;5069159;28;20040;-65
2022/05/14 08:37:53;;;;;;;17.88;4.57;;;18.20;99.90;;;;;;5084683;28;20039;-65
2022/05/14 08:40:28;;;;;;;18.48;3.88;;;18.10;99.90;;;;;;5060529;28;20035;-65
2022/05/14 08:43:03;;;;;;;16.58;4.18;;;18.20;99.90;;;;;;5054975;28;20448;-65
2022/05/14 08:45:33;;;;;;;16.35;3.70;;;18.50;99.90;;;;;;5090412;28;20035;-65
2022/05/14 08:48:07;;;;;;;16.90;3.95;;;18.90;99.90;;;;;;5091542;28;20036;-64
2022/05/14 08:50:36;;;;;;;16.70;4.05;;;18.90;99.90;;;;;;5074774;28;20058;-65
2022/05/14 08:53:06;;;;;;;18.48;3.75;;;18.80;99.90;;;;;;5074162;28;20047;-66
2022/05/14 08:55:51;;;;;;;14.27;4.03;;;18.60;99.90;;;;;;5074042;28;20052;-65
2022/05/14 08:58:42;;;;;;;17.58;4.78;;;18.30;99.90;;;;;;5091321;28;20446;-65
2022/05/14 09:01:12;;;;;;;18.20;4.27;;;18.20;99.90;;;;;;5072216;28;20036;-65
2022/05/14 09:03:43;;;;;;;18.10;4.00;;;18.20;99.90;;;;;;5062387;28;20131;-65
2022/05/14 09:06:09;;;;;;;16.23;3.72;;;18.10;99.90;;;;;;5056468;28;20050;-66
2022/05/14 09:08:35;;;;;;;19.05;4.45;;;18.10;99.90;;;;;;5073292;28;20059;-65
2022/05/14 09:11:11;;;;;;;19.77;4.53;;;18.00;99.90;;;;;;5056820;28;20052;-66
2022/05/14 09:13:46;;;;;;;17.65;4.22;;;18.10;99.90;;;;;;5054211;28;20049;-65
2022/05/14 09:16:46;;;;;;;20.70;5.15;;;18.40;99.90;;;;;;5073141;28;20540;-65
2022/05/14 09:19:14;;;;;;;20.42;4.55;;;18.80;99.90;;;;;;4988396;28;20042;-66
2022/05/14 09:21:50;;;;;;;19.92;4.65;;;19.20;99.90;;;;;;4973766;28;20061;-65
2022/05/14 09:24:25;;;;;;;21.50;4.30;;;19.50;99.90;;;;;;4989948;28;20041;-65
2022/05/14 09:27:10;;;;;;;17.75;4.15;;;20.00;99.90;;;;;;4989107;28;20112;-65
2022/05/14 09:29:43;;;;;;;17.33;4.47;;;20.20;99.10;;;;;;4985030;28;20438;-65
2022/05/14 09:32:20;;;;;;;15.30;4.07;;;20.10;99.10;;;;;;4982811;28;20092;-65
2022/05/14 09:34:47;;;;;;;18.27;3.85;;;19.80;99.30;;;;;;4975941;28;20540;-65
2022/05/14 09:37:18;;;;;;;17.90;4.18;;;19.50;99.80;;;;;;4971059;28;20065;-65
2022/05/14 09:39:59;;;;;;;15.95;3.92;;;19.30;99.80;;;;;;4967364;28;20668;-65
2022/05/14 09:42:30;;;;;;;17.90;3.65;;;19.30;99.80;;;;;;4962657;28;20050;-65
2022/05/14 09:44:57;;;;;;;15.13;3.88;;;19.20;99.40;;;;;;4954969;28;20039;-65
2022/05/14 09:47:30;;;;;;;17.67;3.92;;;19.30;99.30;;;;;;4972842;28;20641;-65
2022/05/14 09:50:02;;;;;;;15.45;3.30;;;19.40;98.40;;;;;;4973724;28;20058;-65
2022/05/14 09:52:32;;;;;;;17.40;3.80;;;19.20;98.50;;;;;;4981753;28;20394;-65
2022/05/14 09:55:01;;;;;;;14.50;3.70;;;19.40;98.50;;;;;;5012185;28;20053;-65
2022/05/14 09:57:46;;;;;;;14.25;3.75;;;19.20;97.80;;;;;;5061158;28;20040;-65
2022/05/14 10:00:36;;;;;;;18.35;4.05;;;19.30;98.10;;;;;;5060560;28;20102;-65
2022/05/14 10:03:16;;;;;;;14.77;3.30;;;19.60;97.70;;;;;;5064168;28;20048;-65
2022/05/14 10:06:10;;;;;;;17.25;4.25;;;19.90;97.30;;;;;;5090826;28;20050;-65
2022/05/14 10:08:49;;;;;;;15.02;3.50;;;20.20;97.00;;;;;;5072415;28;20054;-65
2022/05/14 10:11:22;;;;;;;16.65;3.75;;;20.60;97.00;;;;;;5053319;28;20064;-65
2022/05/14 10:14:10;;;;;;;18.45;4.53;;;20.50;95.40;;;;;;5048386;28;20053;-65
2022/05/14 10:17:06;;;;;;;18.48;4.10;;;20.00;95.70;;;;;;5034243;28;20167;-65
2022/05/14 10:20:05;;;;;;;15.20;4.30;;;19.50;96.30;;;;;;5051185;28;20548;-64
2022/05/14 10:28:57;;;;;;;17.00;3.88;;;19.50;96.70;;;;;;5035106;28;20004;-65
2022/05/14 10:31:55;;;;;;;16.55;4.13;;;19.30;96.90;;;;;;5045112;28;20044;-65
2022/05/14 10:34:36;;;;;;;20.35;3.65;;;19.00;97.00;;;;;;5052177;28;20509;-65
2022/05/14 10:37:11;;;;;;;13.30;3.58;;;19.20;96.90;;;;;;5049769;28;20039;-64
2022/05/14 10:39:46;;;;;;;12.20;3.58;;;19.80;97.10;;;;;;5052704;28;20051;-65
2022/05/14 10:42:25;;;;;;;16.17;4.18;;;20.30;97.30;;;;;;5052078;28;20036;-65
2022/05/14 10:44:59;;;;;;;13.95;3.47;;;20.30;95.30;;;;;;5051710;28;20123;-65
2022/05/14 10:47:27;;;;;;;14.88;3.90;;;19.80;95.60;;;;;;5069384;28;20076;-64
2022/05/14 10:50:02;;;;;;;19.67;4.47;;;19.50;96.30;;;;;;5069768;28;20086;-65
2022/05/14 10:52:28;;;;;;;13.20;3.50;;;19.50;96.70;;;;;;5052554;28;20040;-65
2022/05/14 10:54:54;;;;;;;14.43;3.75;;;19.60;96.50;;;;;;5049976;28;20379;-65
2022/05/14 10:57:19;;;;;;;15.38;3.78;;;19.50;96.20;;;;;;5046598;28;20045;-64
2022/05/14 10:59:50;;;;;;;14.45;3.55;;;19.60;96.00;;;;;;5032846;28;20037;-65
2022/05/14 11:02:28;;;;;;;16.65;3.72;;;19.60;95.70;;;;;;5068269;28;20036;-65
2022/05/14 11:04:54;;;;;;;16.35;3.85;;;19.50;94.90;;;;;;5069377;28;20093;-64
2022/05/14 11:07:26;;;;;;;16.02;3.30;;;19.40;96.10;;;;;;5069019;28;20040;-65
2022/05/14 11:09:52;;;;;;;18.20;3.42;;;19.40;96.00;;;;;;5056938;28;20062;-65
2022/05/14 11:12:21;;;;;;;14.40;3.72;;;19.60;96.50;;;;;;5070448;28;20217;-65
2022/05/14 11:14:55;;;;;;;16.58;4.00;;;19.70;95.20;;;;;;5051002;28;20407;-65
2022/05/14 11:17:35;;;;;;;13.43;3.58;;;19.80;94.80;;;;;;5065209;28;20045;-65
2022/05/14 11:20:06;;;;;;;13.25;3.05;;;20.10;95.20;;;;;;5038359;28;20029;-65
2022/05/14 11:22:41;;;;;;;15.55;3.70;;;20.60;95.20;;;;;;5057375;28;20407;-64
2022/05/14 11:25:22;;;;;;;16.00;4.07;;;20.90;94.80;;;;;;5042151;28;20062;-65
2022/05/14 11:28:12;;;;;;;15.98;4.15;;;20.90;94.20;;;;;;5035492;28;20041;-64
2022/05/14 11:30:44;;;;;;;16.33;3.85;;;21.20;93.80;;;;;;5037797;28;20399;-65
2022/05/14 11:33:25;;;;;;;;;;;21.10;92.90;;;;;;5045706;28;20119;-66
2022/05/14 11:36:13;;;;;;;16.63;3.60;;;21.00;92.60;;;;;;5033105;28;19916;-65
2022/05/14 11:38:42;;;;;;;17.77;4.25;;;20.90;93.40;;;;;;5038175;28;20060;-65
2022/05/14 11:41:14;;;;;;;18.02;3.83;;;20.60;93.10;;;;;;5069976;28;20051;-65
2022/05/14 11:43:51;;;;;;;15.18;3.55;;;20.50;93.40;;;;;;5052384;28;20036;-64
2022/05/14 11:46:30;;;;;;;17.13;3.85;;;20.50;94.10;;;;;;5069927;28;20041;-65
2022/05/14 11:49:09;;;;;;;16.73;4.45;;;20.40;94.20;;;;;;5057008;28;20550;-65
2022/05/14 11:51:37;;;;;;;15.77;4.28;;;20.40;94.00;;;;;;5068249;28;20045;-64
2022/05/14 11:54:09;;;;;;;14.93;3.80;;;20.60;94.00;;;;;;5032205;28;20045;-64
2022/05/14 11:56:39;;;;;;;;;;;20.70;93.60;;;;;;5032467;28;20518;-65
2022/05/14 11:59:10;;;;;;;15.10;3.80;;;20.60;93.40;;;;;;5031728;28;19923;-65
2022/05/14 12:01:39;;;;;;;11.82;3.30;;;20.60;94.20;;;;;;5050081;28;20037;-64
2022/05/14 12:04:14;;;;;;;11.35;3.20;;;20.50;94.00;;;;;;5049363;28;20036;-65
2022/05/14 12:07:00;;;;;;;13.18;3.45;;;20.50;93.90;;;;;;5062303;28;20127;-65
2022/05/14 12:09:44;;;;;;;14.10;3.83;;;20.40;93.40;;;;;;5031981;28;20488;-64
2022/05/14 12:12:19;;;;;;;13.18;3.85;;;20.30;93.70;;;;;;5031844;28;20483;-64
2022/05/14 12:14:45;;;;;;;13.15;3.33;;;20.10;93.90;;;;;;5045920;28;20061;-64
2022/05/14 12:17:18;;;;;;;19.70;3.65;;;20.00;93.60;;;;;;5053785;28;20402;-65
2022/05/14 12:19:52;;;;;;;15.93;4.05;;;20.20;94.30;;;;;;5051310;28;20049;-65
2022/05/14 12:22:21;;;;;;;15.45;3.47;;;20.20;93.00;;;;;;5070118;28;20032;-64
2022/05/14 12:24:57;;;;;;;16.50;3.60;;;20.10;93.20;;;;;;5051744;28;20045;-66
2022/05/14 12:27:24;;;;;;;14.63;3.72;;;20.00;93.50;;;;;;5070062;28;20033;-65
2022/05/14 12:29:57;;;;;;;21.75;3.95;;;19.80;93.50;;;;;;5051891;28;20071;-64
2022/05/14 12:35:19;;;;;;;14.48;3.47;;;19.80;94.00;;;;;;4955399;28;20046;-65
2022/05/14 12:37:45;;;;;;;20.30;3.67;;;19.90;94.40;;;;;;4972298;28;20043;-64
2022/05/14 12:40:30;;;;;;;14.93;3.50;;;19.90;94.00;;;;;;4991651;28;20095;-65
2022/05/14 12:42:57;;;;;;;17.25;3.72;;;19.90;93.90;;;;;;5008101;28;20046;-65
2022/05/14 12:45:44;;;;;;;13.00;3.53;;;19.80;94.10;;;;;;4974579;28;20054;-65
2022/05/14 12:48:12;;;;;;;8.95;3.22;;;20.00;94.40;;;;;;4975144;28;20092;-64
2022/05/14 12:50:41;;;;;;;15.43;3.25;;;20.10;93.60;;;;;;4975266;28;20058;-65
2022/05/14 12:53:11;;;;;;;17.98;3.60;;;20.40;93.60;;;;;;4974951;28;20054;-65
2022/05/14 12:55:41;;;;;;;15.90;3.20;;;20.50;93.10;;;;;;5007698;28;20568;-65
2022/05/14 12:58:07;;;;;;;17.02;3.90;;;20.20;92.40;;;;;;4986570;28;20525;-64
2022/05/14 13:00:36;;;;;;;16.65;3.85;;;20.20;92.90;;;;;;4991142;28;20061;-65
2022/05/14 13:03:04;;;;;;;12.98;3.45;;;20.10;92.90;;;;;;4959157;28;20077;-65
2022/05/14 13:05:36;;;;;;;11.65;3.33;;;20.00;92.20;;;;;;4974581;28;20050;-64
2022/05/14 13:08:05;;;;;;;15.93;3.78;;;19.90;91.60;;;;;;4991213;28;20042;-65
2022/05/14 13:10:31;;;;;;;14.32;3.28;;;20.10;92.00;;;;;;4975046;28;20075;-64
2022/05/14 13:13:04;;;;;;;12.02;3.45;;;20.40;91.80;;;;;;5045313;28;20049;-64
2022/05/14 13:15:31;;;;;;;18.67;3.88;;;20.50;92.00;;;;;;5091708;28;20522;-64
2022/05/14 13:17:56;;;;;;;14.38;3.55;;;20.70;92.70;;;;;;5075158;28;20069;-65
2022/05/14 13:20:24;;;;;;;16.95;3.95;;;20.80;92.30;;;;;;5075012;28;20028;-64
2022/05/14 13:23:10;;;;;;;13.20;3.20;;;20.90;92.60;;;;;;5074764;28;20036;-65